METAR Data
IDs: Format: Raw Decoded Include TAF

Data at: 1351 UTC 26 Feb 2021

LSZB 261320Z 31006KT 270V360 9999 SCT130 16/02 Q1028